Terminal Aerodrome Forecast
Issued by NWS Blacksburg, VA

Home | Current Version | Previous Version | Text Only | Print | Product List | Glossary On
Versions: 1 2 3 4 5 6 7 8 9 10 11 12 13 14 15 16 17 18 19 20 21 22 23 24 25 26 27 28 29 30 31 32 33 34
000
FTUS41 KRNK 040103 AAA
TAFDAN
TAF AMD
KDAN 040103Z 0401/0424 26004KT P6SM VCSH SCT050 BKN070
     FM040300 31005KT 4SM BR BKN080
      TEMPO 0408/0410 2SM BR
     FM041300 33006KT P6SM SCT060
     FM041800 26008KT P6SM SCT050=

USA.gov is the U.S. government's official web portal to all federal, state and local government web resources and services.